Terminal Aerodrome Forecast
Issued by NWS Sioux Falls, SD

Home | Current Version | Previous Version | Graphics & Text | Print | Product List | Glossary On
Versions: 1 2 3 4 5 6 7 8 9 10 11 12 13 14
633
FTUS43 KFSD 170520
TAFFSD
TAF
KFSD 170520Z 1706/1806 VRB03KT P6SM FEW250
     FM171500 11009KT P6SM SCT200
     FM172000 10010KT P6SM SCT045
     FM180200 08010KT P6SM BKN030=

USA.gov is the U.S. government's official web portal to all federal, state and local government web resources and services.